sensor_id;sensor_type;location;lat;lon;timestamp;pressure;altitude;pressure_sealevel;temperature;humidity
10014;BME280;45684;48.358;10.746;2023-04-06T00:01:56;96442.03;;;-0.69;100.00
10014;BME280;45684;48.358;10.746;2023-04-06T00:04:24;96442.94;;;-0.63;100.00
10014;BME280;45684;48.358;10.746;2023-04-06T00:06:53;96443.31;;;-0.71;100.00
10014;BME280;45684;48.358;10.746;2023-04-06T00:09:21;96433.97;;;-0.74;100.00
10014;BME280;45684;48.358;10.746;2023-04-06T00:11:50;96429.69;;;-0.75;100.00
10014;BME280;45684;48.358;10.746;2023-04-06T00:14:18;96431.53;;;-0.75;100.00
10014;BME280;45684;48.358;10.746;2023-04-06T00:16:46;96433.19;;;-0.74;100.00
10014;BME280;45684;48.358;10.746;2023-04-06T00:19:14;96422.06;;;-0.71;100.00
10014;BME280;45684;48.358;10.746;2023-04-06T00:21:42;96421.84;;;-0.70;100.00
10014;BME280;45684;48.358;10.746;2023-04-06T00:24:10;96428.19;;;-0.71;100.00
10014;BME280;45684;48.358;10.746;2023-04-06T00:26:38;96424.97;;;-0.73;100.00
10014;BME280;45684;48.358;10.746;2023-04-06T00:29:08;96425.78;;;-0.72;100.00
10014;BME280;45684;48.358;10.746;2023-04-06T00:31:36;96439.28;;;-0.74;100.00
10014;BME280;45684;48.358;10.746;2023-04-06T00:34:05;96426.47;;;-0.77;100.00
10014;BME280;45684;48.358;10.746;2023-04-06T00:36:33;96423.50;;;-0.81;100.00
10014;BME280;45684;48.358;10.746;2023-04-06T00:39:00;96420.66;;;-0.91;100.00
10014;BME280;45684;48.358;10.746;2023-04-06T00:41:28;96420.81;;;-0.97;100.00
10014;BME280;45684;48.358;10.746;2023-04-06T00:43:56;96419.41;;;-1.00;100.00
10014;BME280;45684;48.358;10.746;2023-04-06T00:46:26;96423.13;;;-1.01;100.00
10014;BME280;45684;48.358;10.746;2023-04-06T00:48:54;96424.38;;;-1.04;100.00
10014;BME280;45684;48.358;10.746;2023-04-06T00:51:22;96410.09;;;-1.02;100.00
10014;BME280;45684;48.358;10.746;2023-04-06T00:53:50;96414.91;;;-0.99;100.00
10014;BME280;45684;48.358;10.746;2023-04-06T00:56:19;96420.00;;;-0.98;100.00
10014;BME280;45684;48.358;10.746;2023-04-06T00:58:50;96416.50;;;-0.98;100.00
10014;BME280;45684;48.358;10.746;2023-04-06T01:01:18;96419.75;;;-0.96;100.00
10014;BME280;45684;48.358;10.746;2023-04-06T01:03:50;96411.78;;;-0.96;100.00
10014;BME280;45684;48.358;10.746;2023-04-06T01:06:20;96411.69;;;-1.01;100.00
10014;BME280;45684;48.358;10.746;2023-04-06T01:08:56;96405.00;;;-1.04;100.00
10014;BME280;45684;48.358;10.746;2023-04-06T01:11:25;96409.75;;;-1.06;100.00
10014;BME280;45684;48.358;10.746;2023-04-06T01:13:53;96412.63;;;-1.08;100.00
10014;BME280;45684;48.358;10.746;2023-04-06T01:16:27;96392.69;;;-1.10;100.00
10014;BME280;45684;48.358;10.746;2023-04-06T01:19:15;96413.56;;;-1.14;100.00
10014;BME280;45684;48.358;10.746;2023-04-06T01:21:47;96400.22;;;-1.19;100.00
10014;BME280;45684;48.358;10.746;2023-04-06T01:24:27;96401.47;;;-1.21;100.00
10014;BME280;45684;48.358;10.746;2023-04-06T01:27:14;96398.03;;;-1.22;100.00
10014;BME280;45684;48.358;10.746;2023-04-06T01:29:50;96400.13;;;-1.24;100.00
10014;BME280;45684;48.358;10.746;2023-04-06T01:32:45;96399.53;;;-1.26;100.00
10014;BME280;45684;48.358;10.746;2023-04-06T01:35:18;96392.06;;;-1.29;100.00
10014;BME280;45684;48.358;10.746;2023-04-06T01:37:57;96392.63;;;-1.27;100.00
10014;BME280;45684;48.358;10.746;2023-04-06T01:40:31;96388.59;;;-1.30;100.00
10014;BME280;45684;48.358;10.746;2023-04-06T01:42:59;96388.72;;;-1.36;100.00
10014;BME280;45684;48.358;10.746;2023-04-06T01:45:36;96397.97;;;-1.50;100.00
10014;BME280;45684;48.358;10.746;2023-04-06T01:48:13;96389.81;;;-1.61;100.00
10014;BME280;45684;48.358;10.746;2023-04-06T01:50:41;96388.47;;;-1.75;100.00
10014;BME280;45684;48.358;10.746;2023-04-06T01:53:13;96386.50;;;-1.80;100.00
10014;BME280;45684;48.358;10.746;2023-04-06T01:55:43;96381.34;;;-1.86;100.00
10014;BME280;45684;48.358;10.746;2023-04-06T01:58:21;96384.44;;;-1.89;100.00
10014;BME280;45684;48.358;10.746;2023-04-06T02:00:49;96382.38;;;-1.87;100.00
10014;BME280;45684;48.358;10.746;2023-04-06T02:03:17;96380.31;;;-1.85;100.00
10014;BME280;45684;48.358;10.746;2023-04-06T02:05:46;96383.41;;;-1.88;100.00
10014;BME280;45684;48.358;10.746;2023-04-06T02:08:23;96385.25;;;-1.89;100.00
10014;BME280;45684;48.358;10.746;2023-04-06T02:10:53;96374.50;;;-1.82;100.00
10014;BME280;45684;48.358;10.746;2023-04-06T02:13:32;96376.97;;;-1.81;100.00
10014;BME280;45684;48.358;10.746;2023-04-06T02:16:00;96377.31;;;-1.77;100.00
10014;BME280;45684;48.358;10.746;2023-04-06T02:18:30;96374.50;;;-1.82;100.00
10014;BME280;45684;48.358;10.746;2023-04-06T02:20:58;96375.34;;;-1.82;100.00
10014;BME280;45684;48.358;10.746;2023-04-06T02:23:25;96374.06;;;-1.79;100.00
10014;BME280;45684;48.358;10.746;2023-04-06T02:25:57;96370.16;;;-1.76;100.00
10014;BME280;45684;48.358;10.746;2023-04-06T02:28:25;96373.59;;;-1.76;100.00
10014;BME280;45684;48.358;10.746;2023-04-06T02:30:53;96373.00;;;-1.78;100.00
10014;BME280;45684;48.358;10.746;2023-04-06T02:33:26;96373.00;;;-1.78;100.00
10014;BME280;45684;48.358;10.746;2023-04-06T02:35:54;96373.81;;;-1.77;100.00
10014;BME280;45684;48.358;10.746;2023-04-06T02:38:22;96372.22;;;-1.78;100.00
10014;BME280;45684;48.358;10.746;2023-04-06T02:40:51;96375.91;;;-1.80;100.00
10014;BME280;45684;48.358;10.746;2023-04-06T02:43:26;96375.09;;;-1.80;100.00
10014;BME280;45684;48.358;10.746;2023-04-06T02:46:02;96373.50;;;-1.81;100.00
10014;BME280;45684;48.358;10.746;2023-04-06T02:48:33;96369.22;;;-1.82;100.00
10014;BME280;45684;48.358;10.746;2023-04-06T02:51:03;96370.97;;;-1.88;100.00
10014;BME280;45684;48.358;10.746;2023-04-06T02:53:32;96369.00;;;-1.92;100.00
10014;BME280;45684;48.358;10.746;2023-04-06T02:56:00;96372.69;;;-1.82;100.00
10014;BME280;45684;48.358;10.746;2023-04-06T02:58:40;96371.44;;;-2.02;100.00
10014;BME280;45684;48.358;10.746;2023-04-06T03:01:08;96372.94;;;-2.07;100.00
10014;BME280;45684;48.358;10.746;2023-04-06T03:03:37;96368.44;;;-2.18;100.00
10014;BME280;45684;48.358;10.746;2023-04-06T03:06:10;96361.56;;;-2.19;100.00
10014;BME280;45684;48.358;10.746;2023-04-06T03:08:39;96370.19;;;-2.23;100.00
10014;BME280;45684;48.358;10.746;2023-04-06T03:11:07;96366.00;;;-2.19;100.00
10014;BME280;45684;48.358;10.746;2023-04-06T03:13:40;96370.16;;;-2.12;100.00
10014;BME280;45684;48.358;10.746;2023-04-06T03:16:09;96359.94;;;-2.08;100.00
10014;BME280;45684;48.358;10.746;2023-04-06T03:18:37;96363.38;;;-2.08;100.00
10014;BME280;45684;48.358;10.746;2023-04-06T03:21:05;96362.34;;;-2.07;100.00
10014;BME280;45684;48.358;10.746;2023-04-06T03:23:43;96362.34;;;-2.07;100.00
10014;BME280;45684;48.358;10.746;2023-04-06T03:26:11;96355.19;;;-2.06;100.00
10014;BME280;45684;48.358;10.746;2023-04-06T03:28:40;96359.69;;;-2.07;100.00
10014;BME280;45684;48.358;10.746;2023-04-06T03:31:08;96357.63;;;-2.04;100.00
10014;BME280;45684;48.358;10.746;2023-04-06T03:33:39;96355.78;;;-2.04;100.00
10014;BME280;45684;48.358;10.746;2023-04-06T03:36:09;96359.00;;;-2.02;100.00
10014;BME280;45684;48.358;10.746;2023-04-06T03:38:40;96357.63;;;-2.04;100.00
10014;BME280;45684;48.358;10.746;2023-04-06T03:41:11;96358.63;;;-2.06;100.00
10014;BME280;45684;48.358;10.746;2023-04-06T03:43:45;96352.78;;;-2.08;100.00
10014;BME280;45684;48.358;10.746;2023-04-06T03:46:13;96358.06;;;-2.08;100.00
10014;BME280;45684;48.358;10.746;2023-04-06T03:48:41;96362.81;;;-2.10;100.00
10014;BME280;45684;48.358;10.746;2023-04-06T03:51:12;96361.66;;;-2.14;100.00
10014;BME280;45684;48.358;10.746;2023-04-06T03:53:40;96367.41;;;-2.17;100.00
10014;BME280;45684;48.358;10.746;2023-04-06T03:56:10;96363.50;;;-2.26;100.00
10014;BME280;45684;48.358;10.746;2023-04-06T03:58:37;96369.03;;;-2.27;100.00
10014;BME280;45684;48.358;10.746;2023-04-06T04:01:07;96365.22;;;-2.32;100.00
10014;BME280;45684;48.358;10.746;2023-04-06T04:03:35;96364.50;;;-2.39;100.00
10014;BME280;45684;48.358;10.746;2023-04-06T04:06:03;96363.16;;;-2.41;100.00
10014;BME280;45684;48.358;10.746;2023-04-06T04:08:31;96365.56;;;-2.40;100.00
10014;BME280;45684;48.358;10.746;2023-04-06T04:10:59;96363.50;;;-2.38;100.00
10014;BME280;45684;48.358;10.746;2023-04-06T04:13:27;96362.81;;;-2.33;100.00
10014;BME280;45684;48.358;10.746;2023-04-06T04:15:55;96360.97;;;-2.33;100.00
10014;BME280;45684;48.358;10.746;2023-04-06T04:18:25;96366.03;;;-2.31;100.00
10014;BME280;45684;48.358;10.746;2023-04-06T04:20:52;96368.44;;;-2.29;100.00
10014;BME280;45684;48.358;10.746;2023-04-06T04:23:22;96373.72;;;-2.29;100.00
10014;BME280;45684;48.358;10.746;2023-04-06T04:25:49;96372.38;;;-2.32;100.00
10014;BME280;45684;48.358;10.746;2023-04-06T04:28:18;96372.25;;;-2.37;100.00
10014;BME280;45684;48.358;10.746;2023-04-06T04:30:46;96373.06;;;-2.37;100.00
10014;BME280;45684;48.358;10.746;2023-04-06T04:33:14;96366.94;;;-2.37;100.00
10014;BME280;45684;48.358;10.746;2023-04-06T04:35:44;96376.38;;;-2.41;100.00
10014;BME280;45684;48.358;10.746;2023-04-06T04:38:16;96365.56;;;-2.40;100.00
10014;BME280;45684;48.358;10.746;2023-04-06T04:40:50;96376.16;;;-2.40;100.00
10014;BME280;45684;48.358;10.746;2023-04-06T04:43:18;96369.69;;;-2.44;100.00
10014;BME280;45684;48.358;10.746;2023-04-06T04:45:46;96372.56;;;-2.45;100.00
10014;BME280;45684;48.358;10.746;2023-04-06T04:48:26;96369.34;;;-2.47;100.00
10014;BME280;45684;48.358;10.746;2023-04-06T04:51:00;96375.66;;;-2.48;100.00
10014;BME280;45684;48.358;10.746;2023-04-06T04:53:39;96381.19;;;-2.50;100.00
10014;BME280;45684;48.358;10.746;2023-04-06T04:56:16;96378.56;;;-2.50;100.00
10014;BME280;45684;48.358;10.746;2023-04-06T04:58:46;96381.31;;;-2.45;100.00
10014;BME280;45684;48.358;10.746;2023-04-06T05:01:14;96384.31;;;-2.41;100.00
10014;BME280;45684;48.358;10.746;2023-04-06T05:03:44;96389.63;;;-2.41;100.00
10014;BME280;45684;48.358;10.746;2023-04-06T05:06:15;96390.88;;;-2.44;100.00
10014;BME280;45684;48.358;10.746;2023-04-06T05:08:44;96395.59;;;-2.46;100.00
10014;BME280;45684;48.358;10.746;2023-04-06T05:11:12;96391.09;;;-2.45;100.00
10014;BME280;45684;48.358;10.746;2023-04-06T05:13:44;96394.88;;;-2.53;100.00
10014;BME280;45684;48.358;10.746;2023-04-06T05:16:17;96408.84;;;-2.34;100.00
10014;BME280;45684;48.358;10.746;2023-04-06T05:18:45;96409.88;;;-2.35;100.00
10014;BME280;45684;48.358;10.746;2023-04-06T05:21:16;96404.25;;;-2.27;100.00
10014;BME280;45684;48.358;10.746;2023-04-06T05:24:10;96413.34;;;-2.11;100.00
10014;BME280;45684;48.358;10.746;2023-04-06T05:26:39;96412.22;;;-2.03;100.00
10014;BME280;45684;48.358;10.746;2023-04-06T05:29:18;96415.09;;;-1.93;100.00
10014;BME280;45684;48.358;10.746;2023-04-06T05:31:46;96415.56;;;-1.85;100.00
10014;BME280;45684;48.358;10.746;2023-04-06T05:34:15;96420.16;;;-1.80;100.00
10014;BME280;45684;48.358;10.746;2023-04-06T05:36:44;96418.31;;;-1.68;100.00
10014;BME280;45684;48.358;10.746;2023-04-06T05:39:19;96416.69;;;-1.57;100.00
10014;BME280;45684;48.358;10.746;2023-04-06T05:41:49;96424.84;;;-1.47;100.00
10014;BME280;45684;48.358;10.746;2023-04-06T05:44:28;96430.59;;;-1.38;100.00
10014;BME280;45684;48.358;10.746;2023-04-06T05:47:07;96414.66;;;-1.26;100.00
10014;BME280;45684;48.358;10.746;2023-04-06T05:49:36;96425.00;;;-1.13;100.00
10014;BME280;45684;48.358;10.746;2023-04-06T05:52:11;96430.03;;;-1.00;100.00
10014;BME280;45684;48.358;10.746;2023-04-06T05:54:42;96421.53;;;-0.85;100.00
10014;BME280;45684;48.358;10.746;2023-04-06T05:57:10;96420.72;;;-0.74;100.00
10014;BME280;45684;48.358;10.746;2023-04-06T05:59:38;96420.31;;;-0.66;100.00
10014;BME280;45684;48.358;10.746;2023-04-06T06:02:06;96427.88;;;-0.58;100.00
10014;BME280;45684;48.358;10.746;2023-04-06T06:04:39;96417.44;;;-0.47;100.00
10014;BME280;45684;48.358;10.746;2023-04-06T06:07:07;96425.34;;;-0.36;100.00
10014;BME280;45684;48.358;10.746;2023-04-06T06:09:43;96418.00;;;-0.29;100.00
10014;BME280;45684;48.358;10.746;2023-04-06T06:12:22;96416.34;;;-0.18;100.00
10014;BME280;45684;48.358;10.746;2023-04-06T06:14:50;96425.53;;;-0.09;100.00
10014;BME280;45684;48.358;10.746;2023-04-06T06:17:19;96425.94;;;0.00;100.00
10014;BME280;45684;48.358;10.746;2023-04-06T06:19:48;96414.06;;;0.08;100.00
10014;BME280;45684;48.358;10.746;2023-04-06T06:22:16;96427.03;;;0.21;100.00
10014;BME280;45684;48.358;10.746;2023-04-06T06:24:47;96422.44;;;0.33;100.00
10014;BME280;45684;48.358;10.746;2023-04-06T06:27:19;96423.13;;;0.45;100.00
10014;BME280;45684;48.358;10.746;2023-04-06T06:29:47;96420.34;;;0.57;100.00
10014;BME280;45684;48.358;10.746;2023-04-06T06:32:15;96423.94;;;0.68;100.00
10014;BME280;45684;48.358;10.746;2023-04-06T06:34:46;96422.78;;;0.81;100.00
10014;BME280;45684;48.358;10.746;2023-04-06T06:37:14;96426.38;;;0.91;100.00
10014;BME280;45684;48.358;10.746;2023-04-06T06:39:42;96426.31;;;1.08;100.00
10014;BME280;45684;48.358;10.746;2023-04-06T06:42:11;96435.53;;;1.22;100.00
10014;BME280;45684;48.358;10.746;2023-04-06T06:45:04;96427.19;;;1.41;100.00
10014;BME280;45684;48.358;10.746;2023-04-06T06:47:32;96428.69;;;1.59;100.00
10014;BME280;45684;48.358;10.746;2023-04-06T06:50:00;96426.41;;;1.72;100.00
10014;BME280;45684;48.358;10.746;2023-04-06T06:52:29;96432.19;;;1.91;100.00
10014;BME280;45684;48.358;10.746;2023-04-06T06:54:58;96428.06;;;2.11;100.00
10014;BME280;45684;48.358;10.746;2023-04-06T06:57:28;96431.59;;;2.21;100.00
10014;BME280;45684;48.358;10.746;2023-04-06T06:59:56;96426.31;;;2.32;100.00
10014;BME280;45684;48.358;10.746;2023-04-06T07:02:27;96433.06;;;2.39;100.00
10014;BME280;45684;48.358;10.746;2023-04-06T07:04:55;96435.25;;;2.47;100.00
10014;BME280;45684;48.358;10.746;2023-04-06T07:07:23;96439.81;;;2.52;100.00
10014;BME280;45684;48.358;10.746;2023-04-06T07:09:51;96446.03;;;2.68;100.00
10014;BME280;45684;48.358;10.746;2023-04-06T07:12:19;96450.91;;;2.81;100.00
10014;BME280;45684;48.358;10.746;2023-04-06T07:14:48;96447.00;;;2.99;100.00
10014;BME280;45684;48.358;10.746;2023-04-06T07:17:16;96448.38;;;3.12;100.00
10014;BME280;45684;48.358;10.746;2023-04-06T07:19:45;96448.44;;;3.22;100.00
10014;BME280;45684;48.358;10.746;2023-04-06T07:22:13;96445.50;;;3.33;100.00
10014;BME280;45684;48.358;10.746;2023-04-06T07:24:40;96448.50;;;3.47;100.00
10014;BME280;45684;48.358;10.746;2023-04-06T07:27:09;96439.19;;;3.65;100.00
10014;BME280;45684;48.358;10.746;2023-04-06T07:29:37;96441.06;;;3.85;100.00
10014;BME280;45684;48.358;10.746;2023-04-06T07:32:06;96447.78;;;3.98;100.00
10014;BME280;45684;48.358;10.746;2023-04-06T07:34:34;96444.56;;;4.16;100.00
10014;BME280;45684;48.358;10.746;2023-04-06T07:37:02;96442.97;;;4.20;99.32
10014;BME280;45684;48.358;10.746;2023-04-06T07:39:31;96447.75;;;4.33;99.04
10014;BME280;45684;48.358;10.746;2023-04-06T07:41:59;96444.25;;;4.53;99.53
10014;BME280;45684;48.358;10.746;2023-04-06T07:44:27;96453.84;;;4.75;99.62
10014;BME280;45684;48.358;10.746;2023-04-06T07:46:56;96448.19;;;4.92;93.85
10014;BME280;45684;48.358;10.746;2023-04-06T07:49:25;96455.91;;;5.08;88.18
10014;BME280;45684;48.358;10.746;2023-04-06T07:51:54;96456.94;;;5.23;87.52
10014;BME280;45684;48.358;10.746;2023-04-06T07:54:21;96451.75;;;5.42;88.13
10014;BME280;45684;48.358;10.746;2023-04-06T07:56:49;96458.38;;;5.54;77.06
10014;BME280;45684;48.358;10.746;2023-04-06T07:59:17;96466.84;;;5.72;70.58
10014;BME280;45684;48.358;10.746;2023-04-06T08:01:45;96459.25;;;5.89;68.17
10014;BME280;45684;48.358;10.746;2023-04-06T08:04:13;96465.06;;;6.06;65.66
10014;BME280;45684;48.358;10.746;2023-04-06T08:06:42;96462.56;;;6.20;63.71
10014;BME280;45684;48.358;10.746;2023-04-06T08:09:10;96461.09;;;6.33;64.98
10014;BME280;45684;48.358;10.746;2023-04-06T08:11:38;96465.84;;;6.41;65.23
10014;BME280;45684;48.358;10.746;2023-04-06T08:14:07;96454.75;;;6.53;64.55
10014;BME280;45684;48.358;10.746;2023-04-06T08:16:35;96466.94;;;6.69;65.03
10014;BME280;45684;48.358;10.746;2023-04-06T08:19:03;96454.97;;;6.85;63.12
10014;BME280;45684;48.358;10.746;2023-04-06T08:21:31;96458.41;;;6.91;61.59
10014;BME280;45684;48.358;10.746;2023-04-06T08:24:00;96461.22;;;7.05;58.96
10014;BME280;45684;48.358;10.746;2023-04-06T08:26:28;96463.59;;;7.06;54.68
10014;BME280;45684;48.358;10.746;2023-04-06T08:28:56;96464.75;;;7.24;51.60
10014;BME280;45684;48.358;10.746;2023-04-06T08:31:24;96463.69;;;7.44;51.95
10014;BME280;45684;48.358;10.746;2023-04-06T08:33:52;96461.66;;;7.55;50.73
10014;BME280;45684;48.358;10.746;2023-04-06T08:36:20;96463.09;;;7.71;51.16
10014;BME280;45684;48.358;10.746;2023-04-06T08:38:49;96461.91;;;7.96;50.73
10014;BME280;45684;48.358;10.746;2023-04-06T08:41:18;96459.13;;;8.01;48.87
10014;BME280;45684;48.358;10.746;2023-04-06T08:43:49;96450.78;;;8.03;50.88
10014;BME280;45684;48.358;10.746;2023-04-06T08:46:17;96449.16;;;8.02;48.63
10014;BME280;45684;48.358;10.746;2023-04-06T08:48:45;96448.56;;;8.24;49.94
10014;BME280;45684;48.358;10.746;2023-04-06T08:51:15;96451.34;;;8.18;49.43
10014;BME280;45684;48.358;10.746;2023-04-06T08:53:43;96450.19;;;8.06;48.51
10014;BME280;45684;48.358;10.746;2023-04-06T08:56:12;96456.66;;;8.24;47.39
10014;BME280;45684;48.358;10.746;2023-04-06T08:58:41;96451.81;;;8.58;49.04
10014;BME280;45684;48.358;10.746;2023-04-06T09:01:11;96450.94;;;8.77;48.13
10014;BME280;45684;48.358;10.746;2023-04-06T09:03:44;96446.94;;;8.74;46.55
10014;BME280;45684;48.358;10.746;2023-04-06T09:06:14;96442.78;;;8.96;47.12
10014;BME280;45684;48.358;10.746;2023-04-06T09:08:42;96439.44;;;8.85;47.16
10014;BME280;45684;48.358;10.746;2023-04-06T09:11:10;96445.47;;;9.23;47.73
10014;BME280;45684;48.358;10.746;2023-04-06T09:13:47;96443.88;;;9.36;45.71
10014;BME280;45684;48.358;10.746;2023-04-06T09:16:16;96437.06;;;9.52;46.80
10014;BME280;45684;48.358;10.746;2023-04-06T09:18:45;96438.47;;;9.86;46.32
10014;BME280;45684;48.358;10.746;2023-04-06T09:21:17;96442.72;;;10.01;44.16
10014;BME280;45684;48.358;10.746;2023-04-06T09:23:47;96435.50;;;10.10;43.11
10014;BME280;45684;48.358;10.746;2023-04-06T09:26:25;96436.78;;;9.90;41.75
10014;BME280;45684;48.358;10.746;2023-04-06T09:28:55;96427.06;;;10.11;42.60
10014;BME280;45684;48.358;10.746;2023-04-06T09:31:24;96435.09;;;10.39;41.38
10014;BME280;45684;48.358;10.746;2023-04-06T09:33:53;96429.03;;;10.33;42.54
10014;BME280;45684;48.358;10.746;2023-04-06T09:36:29;96431.91;;;10.59;42.73
10014;BME280;45684;48.358;10.746;2023-04-06T09:38:59;96427.72;;;10.84;40.30
10014;BME280;45684;48.358;10.746;2023-04-06T09:41:28;96432.47;;;11.10;40.42
10014;BME280;45684;48.358;10.746;2023-04-06T09:44:03;96418.94;;;11.10;40.25
10014;BME280;45684;48.358;10.746;2023-04-06T09:46:32;96414.88;;;11.38;40.42
10014;BME280;45684;48.358;10.746;2023-04-06T09:49:22;96422.69;;;11.40;38.76
10014;BME280;45684;48.358;10.746;2023-04-06T09:51:54;96413.72;;;11.31;35.85
10014;BME280;45684;48.358;10.746;2023-04-06T09:54:23;96401.97;;;11.44;36.44
10014;BME280;45684;48.358;10.746;2023-04-06T09:56:58;96409.91;;;11.32;38.18
10014;BME280;45684;48.358;10.746;2023-04-06T09:59:37;96406.97;;;11.77;38.20
10014;BME280;45684;48.358;10.746;2023-04-06T10:02:08;96399.50;;;12.17;36.94
10014;BME280;45684;48.358;10.746;2023-04-06T10:04:43;96404.59;;;12.36;36.74
10014;BME280;45684;48.358;10.746;2023-04-06T10:07:16;96410.03;;;12.36;33.77
10014;BME280;45684;48.358;10.746;2023-04-06T10:09:45;96398.22;;;12.32;36.72
10014;BME280;45684;48.358;10.746;2023-04-06T10:12:14;96399.19;;;12.18;34.85
10014;BME280;45684;48.358;10.746;2023-04-06T10:14:44;96394.38;;;12.33;35.03
10014;BME280;45684;48.358;10.746;2023-04-06T10:17:12;96389.63;;;12.76;35.16
10014;BME280;45684;48.358;10.746;2023-04-06T10:19:46;96386.84;;;12.56;33.95
10014;BME280;45684;48.358;10.746;2023-04-06T10:22:23;96383.06;;;12.86;33.73
10014;BME280;45684;48.358;10.746;2023-04-06T10:24:54;96378.59;;;12.82;34.62
10014;BME280;45684;48.358;10.746;2023-04-06T10:27:29;96381.44;;;12.94;33.52
10014;BME280;45684;48.358;10.746;2023-04-06T10:30:02;96388.34;;;13.21;34.55
10014;BME280;45684;48.358;10.746;2023-04-06T10:32:34;96384.00;;;13.58;33.61
10014;BME280;45684;48.358;10.746;2023-04-06T10:35:07;96382.44;;;13.57;32.25
10014;BME280;45684;48.358;10.746;2023-04-06T10:37:52;96385.66;;;13.92;33.16
10014;BME280;45684;48.358;10.746;2023-04-06T10:40:22;96379.59;;;14.28;35.00
10014;BME280;45684;48.358;10.746;2023-04-06T10:42:52;96376.91;;;14.62;32.14
10014;BME280;45684;48.358;10.746;2023-04-06T10:45:22;96376.31;;;14.35;31.68
10014;BME280;45684;48.358;10.746;2023-04-06T10:47:52;96375.91;;;14.45;31.50
10014;BME280;45684;48.358;10.746;2023-04-06T10:50:21;96376.72;;;14.46;33.01
10014;BME280;45684;48.358;10.746;2023-04-06T10:52:58;96374.56;;;14.85;30.06
10014;BME280;45684;48.358;10.746;2023-04-06T10:55:27;96373.22;;;13.91;30.81
10014;BME280;45684;48.358;10.746;2023-04-06T10:57:56;96370.00;;;14.64;32.77
10014;BME280;45684;48.358;10.746;2023-04-06T11:00:25;96370.84;;;15.26;30.43
10014;BME280;45684;48.358;10.746;2023-04-06T11:03:13;96372.75;;;15.38;31.30
10014;BME280;45684;48.358;10.746;2023-04-06T11:05:43;96367.22;;;14.97;30.14
10014;BME280;45684;48.358;10.746;2023-04-06T11:08:22;96359.59;;;14.78;30.13
10014;BME280;45684;48.358;10.746;2023-04-06T11:10:50;96361.88;;;15.13;30.67
10014;BME280;45684;48.358;10.746;2023-04-06T11:13:18;96358.44;;;15.28;30.36
10014;BME280;45684;48.358;10.746;2023-04-06T11:15:47;96356.72;;;15.73;30.15
10014;BME280;45684;48.358;10.746;2023-04-06T11:18:17;96353.09;;;16.09;30.25
10014;BME280;45684;48.358;10.746;2023-04-06T11:20:47;96357.75;;;15.56;28.58
10014;BME280;45684;48.358;10.746;2023-04-06T11:23:22;96349.84;;;15.02;28.69
10014;BME280;45684;48.358;10.746;2023-04-06T11:25:51;96353.28;;;14.53;29.34
10014;BME280;45684;48.358;10.746;2023-04-06T11:28:19;96350.81;;;14.73;30.03
10014;BME280;45684;48.358;10.746;2023-04-06T11:30:49;96349.50;;;15.16;29.61
10014;BME280;45684;48.358;10.746;2023-04-06T11:33:20;96346.50;;;15.70;29.69
10014;BME280;45684;48.358;10.746;2023-04-06T11:35:48;96349.84;;;15.26;28.38
10014;BME280;45684;48.358;10.746;2023-04-06T11:38:18;96337.25;;;15.87;28.89
10014;BME280;45684;48.358;10.746;2023-04-06T11:40:45;96337.13;;;16.39;27.69
10014;BME280;45684;48.358;10.746;2023-04-06T11:43:13;96342.50;;;16.36;28.15
10014;BME280;45684;48.358;10.746;2023-04-06T11:45:42;96337.69;;;16.45;27.24
10014;BME280;45684;48.358;10.746;2023-04-06T11:48:19;96333.78;;;16.46;25.80
10014;BME280;45684;48.358;10.746;2023-04-06T11:50:55;96329.59;;;16.04;27.13
10014;BME280;45684;48.358;10.746;2023-04-06T11:53:23;96327.81;;;16.12;26.66
10014;BME280;45684;48.358;10.746;2023-04-06T11:55:51;96330.22;;;15.86;26.56
10014;BME280;45684;48.358;10.746;2023-04-06T11:58:19;96327.25;;;16.19;28.00
10014;BME280;45684;48.358;10.746;2023-04-06T12:00:47;96322.88;;;16.46;27.87
10014;BME280;45684;48.358;10.746;2023-04-06T12:03:15;96314.09;;;16.52;28.17
10014;BME280;45684;48.358;10.746;2023-04-06T12:05:44;96307.25;;;16.90;26.76
10014;BME280;45684;48.358;10.746;2023-04-06T12:08:12;96309.03;;;17.33;28.27
10014;BME280;45684;48.358;10.746;2023-04-06T12:10:40;96305.44;;;17.65;27.17
10014;BME280;45684;48.358;10.746;2023-04-06T12:13:08;96303.28;;;17.39;25.90
10014;BME280;45684;48.358;10.746;2023-04-06T12:15:36;96312.75;;;16.74;26.86
10014;BME280;45684;48.358;10.746;2023-04-06T12:18:03;96310.75;;;17.06;27.26
10014;BME280;45684;48.358;10.746;2023-04-06T12:20:31;96316.69;;;16.93;26.06
10014;BME280;45684;48.358;10.746;2023-04-06T12:23:01;96315.19;;;16.79;26.51
10014;BME280;45684;48.358;10.746;2023-04-06T12:25:28;96301.56;;;15.92;27.04
10014;BME280;45684;48.358;10.746;2023-04-06T12:27:57;96301.16;;;15.77;28.73
10014;BME280;45684;48.358;10.746;2023-04-06T12:30:25;96297.44;;;15.98;27.55
10014;BME280;45684;48.358;10.746;2023-04-06T12:32:53;96300.56;;;15.84;27.34
10014;BME280;45684;48.358;10.746;2023-04-06T12:35:21;96297.50;;;15.86;27.22
10014;BME280;45684;48.358;10.746;2023-04-06T12:37:49;96299.63;;;16.36;26.00
10014;BME280;45684;48.358;10.746;2023-04-06T12:40:19;96298.44;;;16.97;26.90
10014;BME280;45684;48.358;10.746;2023-04-06T12:42:47;96291.72;;;17.26;26.49
10014;BME280;45684;48.358;10.746;2023-04-06T12:45:15;96295.63;;;16.77;26.62
10014;BME280;45684;48.358;10.746;2023-04-06T12:47:46;96295.25;;;17.11;25.69
10014;BME280;45684;48.358;10.746;2023-04-06T12:50:14;96296.94;;;17.70;25.62
10014;BME280;45684;48.358;10.746;2023-04-06T12:52:42;96293.72;;;18.03;25.19
10014;BME280;45684;48.358;10.746;2023-04-06T12:55:10;96295.41;;;17.88;24.71
10014;BME280;45684;48.358;10.746;2023-04-06T12:57:39;96287.47;;;17.48;26.68
10014;BME280;45684;48.358;10.746;2023-04-06T13:00:08;96291.09;;;16.69;26.81
10014;BME280;45684;48.358;10.746;2023-04-06T13:02:36;96286.44;;;16.70;26.75
10014;BME280;45684;48.358;10.746;2023-04-06T13:05:05;96292.97;;;16.97;26.00